Time;durP1;ratioP1;P1;durP2;ratioP2;P2;SDS_P1;SDS_P2;PMS_P1;PMS_P2;Temp;Humidity;BMP_temperature;BMP_pressure;BME280_temperature;BME280_humidity;BME280_pressure;Samples;Min_cycle;Max_cycle;Signal;HPM_P1;HPM_P2
2023/08/16 00:03:04;;;;;;;7.15;3.08;;;;;;;18.71;65.54;101681.59;10443886;28;20512;-73
2023/08/16 00:08:06;;;;;;;5.25;3.13;;;;;;;18.67;64.79;101684.16;10443701;28;20041;-72
2023/08/16 00:13:08;;;;;;;5.72;2.83;;;;;;;18.73;63.81;101680.13;10417912;28;20049;-72
2023/08/16 00:18:10;;;;;;;6.60;3.20;;;;;;;18.72;63.68;101688.78;10444607;28;20049;-73
2023/08/16 00:23:12;;;;;;;8.82;4.00;;;;;;;18.65;64.36;101680.88;10430813;28;20038;-72
2023/08/16 00:28:15;;;;;;;7.80;3.60;;;;;;;18.52;64.77;101682.50;10404181;28;20041;-72
2023/08/16 00:33:17;;;;;;;9.95;3.28;;;;;;;18.50;65.27;101684.75;10433081;28;20037;-72
2023/08/16 00:38:19;;;;;;;11.20;3.70;;;;;;;18.50;64.30;101679.22;10442886;28;20052;-72
2023/08/16 00:43:21;;;;;;;4.63;3.08;;;;;;;18.37;64.86;101683.63;10439051;28;20046;-72
2023/08/16 00:48:24;;;;;;;5.30;2.67;;;;;;;18.32;65.43;101664.28;10440394;28;20053;-73
2023/08/16 00:53:29;;;;;;;5.45;2.95;;;;;;;18.24;65.36;101662.22;10456052;28;20050;-74
2023/08/16 00:58:32;;;;;;;8.50;3.88;;;;;;;18.22;65.62;101664.50;10439230;28;20053;-72
2023/08/16 01:03:36;;;;;;;9.40;3.33;;;;;;;18.16;65.99;101662.94;10444719;28;20049;-73
2023/08/16 01:08:38;;;;;;;7.60;3.17;;;;;;;18.12;65.98;101652.75;10441667;28;20242;-73
2023/08/16 01:13:46;;;;;;;9.57;3.20;;;;;;;18.12;65.61;101659.13;10442227;28;20037;-73
2023/08/16 01:18:50;;;;;;;8.13;3.15;;;;;;;18.08;65.51;101642.25;10425295;28;20084;-73
2023/08/16 01:24:18;;;;;;;3.83;2.80;;;;;;;18.09;65.80;101645.84;10438775;28;20081;-73
2023/08/16 01:29:21;;;;;;;4.75;3.03;;;;;;;18.10;65.26;101636.38;10466390;28;20627;-73
2023/08/16 01:34:23;;;;;;;10.35;3.13;;;;;;;18.05;65.55;101636.50;10444051;28;20041;-73
2023/08/16 01:39:25;;;;;;;10.10;3.58;;;;;;;18.00;66.02;101628.25;10440494;28;20527;-73
2023/08/16 01:44:28;;;;;;;8.35;3.67;;;;;;;17.96;65.32;101627.22;10443699;28;20052;-73
2023/08/16 01:49:31;;;;;;;11.65;3.47;;;;;;;17.90;66.21;101618.16;10448758;28;20092;-73
2023/08/16 01:54:34;;;;;;;10.10;3.70;;;;;;;17.76;66.65;101617.31;10430044;28;20034;-73
2023/08/16 01:59:36;;;;;;;9.30;3.50;;;;;;;17.64;66.66;101614.16;10449160;28;20053;-73
2023/08/16 02:04:38;;;;;;;5.50;3.28;;;;;;;17.62;66.63;101610.88;10440054;28;20053;-73
2023/08/16 02:09:41;;;;;;;8.85;3.30;;;;;;;17.62;66.87;101603.38;10449475;28;20049;-73
2023/08/16 02:14:43;;;;;;;11.15;3.83;;;;;;;17.54;66.94;101598.53;10447507;28;20504;-73
2023/08/16 02:19:50;;;;;;;11.13;5.10;;;;;;;17.51;67.42;101603.84;10448776;28;20053;-73
2023/08/16 02:24:52;;;;;;;9.18;5.00;;;;;;;17.49;67.52;101595.84;10443825;28;20046;-73
2023/08/16 02:29:54;;;;;;;11.82;4.60;;;;;;;17.49;67.82;101595.84;10448600;28;20037;-73
2023/08/16 02:34:57;;;;;;;7.68;4.35;;;;;;;17.42;68.22;101585.13;10447730;28;20056;-73
2023/08/16 02:40:00;;;;;;;13.35;5.53;;;;;;;17.34;68.50;101587.78;10447567;28;20046;-73
2023/08/16 02:45:02;;;;;;;12.52;4.95;;;;;;;17.29;68.87;101577.59;10434636;28;20041;-73
2023/08/16 02:50:05;;;;;;;12.63;5.88;;;;;;;17.27;69.65;101576.25;10446053;28;20060;-73
2023/08/16 02:55:08;;;;;;;13.60;5.43;;;;;;;17.28;69.23;101580.66;10439704;28;20058;-73
2023/08/16 03:00:10;;;;;;;10.82;5.53;;;;;;;17.50;69.37;101578.06;10423140;28;20046;-73
2023/08/16 03:05:13;;;;;;;12.32;5.20;;;;;;;18.43;66.47;101575.97;10444127;28;20048;-73
2023/08/16 03:10:15;;;;;;;12.68;4.68;;;;;;;18.98;64.68;101586.97;10440902;28;20049;-72
2023/08/16 03:15:17;;;;;;;13.73;5.05;;;;;;;19.45;63.84;101587.50;10443156;28;20060;-72
2023/08/16 03:20:19;;;;;;;9.05;4.70;;;;;;;20.29;60.75;101578.19;10447120;28;20053;-73
2023/08/16 03:25:21;;;;;;;9.60;4.45;;;;;;;20.57;59.69;101595.53;10444801;28;20173;-72
2023/08/16 03:30:25;;;;;;;10.20;4.30;;;;;;;21.26;58.20;101593.59;10444506;28;20729;-73
2023/08/16 03:35:27;;;;;;;8.05;4.60;;;;;;;21.56;56.90;101586.16;10442289;28;20043;-73
2023/08/16 03:40:29;;;;;;;12.25;5.05;;;;;;;22.13;55.21;101580.22;10428290;28;20496;-72
2023/08/16 03:45:33;;;;;;;11.35;4.40;;;;;;;22.47;54.16;101587.59;10441838;28;20052;-73
2023/08/16 03:50:36;;;;;;;9.32;4.25;;;;;;;22.75;53.58;101584.28;10442802;28;20029;-72
2023/08/16 03:55:38;;;;;;;7.30;3.92;;;;;;;23.17;51.68;101583.13;10441748;28;20522;-72
2023/08/16 04:00:40;;;;;;;17.83;5.28;;;;;;;23.46;51.76;101576.59;10443736;28;20072;-73
2023/08/16 04:05:42;;;;;;;11.48;4.53;;;;;;;23.59;51.21;101574.63;10442951;28;20049;-72
2023/08/16 04:10:45;;;;;;;12.15;4.43;;;;;;;23.73;51.27;101583.56;10443339;28;20048;-72
2023/08/16 04:15:48;;;;;;;8.38;4.90;;;;;;;24.06;50.43;101572.25;10446389;28;20060;-73
2023/08/16 04:20:51;;;;;;;8.90;4.80;;;;;;;24.59;49.21;101575.97;10429907;28;20042;-72
2023/08/16 04:25:55;;;;;;;9.98;4.15;;;;;;;24.16;49.58;101581.38;10441894;28;20072;-72
2023/08/16 04:30:59;;;;;;;13.48;4.63;;;;;;;24.48;48.49;101585.25;10443696;28;20052;-72
2023/08/16 04:36:02;;;;;;;10.02;4.32;;;;;;;24.18;50.33;101571.44;10425025;28;20037;-72
2023/08/16 04:41:04;;;;;;;9.18;3.95;;;;;;;24.00;49.26;101567.25;10438722;28;20046;-72
2023/08/16 04:46:07;;;;;;;11.13;3.95;;;;;;;23.79;49.95;101569.34;10414015;28;20057;-72
2023/08/16 04:51:09;;;;;;;7.63;3.40;;;;;;;23.86;50.77;101569.56;10418783;28;20045;-71
2023/08/16 04:56:12;;;;;;;9.13;3.78;;;;;;;22.42;52.94;101579.41;10438961;28;20050;-71
2023/08/16 05:01:18;;;;;;;7.90;3.55;;;;;;;22.12;54.60;101566.59;10434659;28;20057;-71
2023/08/16 05:06:20;;;;;;;6.82;3.80;;;;;;;21.84;55.10;101567.00;10425520;28;20037;-71
2023/08/16 05:11:24;;;;;;;6.10;3.38;;;;;;;21.27;56.63;101555.34;10417518;28;20054;-71
2023/08/16 05:16:27;;;;;;;8.15;2.35;;;;;;;21.23;57.03;101544.00;10401575;28;20615;-71
2023/08/16 05:21:29;;;;;;;8.60;3.72;;;;;;;21.04;57.80;101546.31;10440581;28;20037;-72
2023/08/16 05:26:31;;;;;;;7.15;3.30;;;;;;;20.85;59.10;101527.13;10451222;28;20049;-72
2023/08/16 05:31:34;;;;;;;8.27;3.90;;;;;;;20.85;59.08;101524.34;10452013;28;20050;-73
2023/08/16 05:36:45;;;;;;;8.07;3.00;;;;;;;20.64;59.86;101509.41;10439701;28;20086;-72
2023/08/16 05:41:48;;;;;;;6.75;3.45;;;;;;;20.72;59.61;101515.00;10450489;28;20416;-72
2023/08/16 05:46:51;;;;;;;8.07;3.03;;;;;;;20.66;59.78;101516.31;10450080;28;20049;-72
2023/08/16 05:51:53;;;;;;;6.75;3.22;;;;;;;20.59;60.35;101501.22;10450150;28;20053;-72
2023/08/16 05:56:55;;;;;;;5.78;2.95;;;;;;;20.75;59.39;101488.41;10447252;28;20052;-72
2023/08/16 06:01:57;;;;;;;5.40;3.28;;;;;;;20.63;60.64;101483.47;10427724;28;20504;-73
2023/08/16 06:07:01;;;;;;;8.40;2.80;;;;;;;20.59;60.84;101484.47;10426317;28;20406;-72
2023/08/16 06:12:04;;;;;;;4.65;2.70;;;;;;;20.66;60.17;101477.28;10448522;28;20049;-73
2023/08/16 06:17:06;;;;;;;5.70;2.70;;;;;;;20.61;60.76;101457.91;10446235;28;20388;-72
2023/08/16 06:22:08;;;;;;;3.88;2.40;;;;;;;20.88;60.81;101467.06;10428985;28;20049;-72
2023/08/16 06:27:10;;;;;;;7.03;2.38;;;;;;;20.81;60.87;101469.53;10450213;28;20049;-72
2023/08/16 06:32:13;;;;;;;4.68;3.05;;;;;;;20.90;60.75;101473.13;10449481;28;20056;-72
2023/08/16 06:37:15;;;;;;;2.90;2.10;;;;;;;21.07;60.29;101459.97;10447844;28;20068;-71
2023/08/16 06:42:18;;;;;;;4.22;2.50;;;;;;;20.98;61.19;101469.50;10445670;28;20080;-72
2023/08/16 06:47:20;;;;;;;3.15;2.53;;;;;;;21.00;60.66;101478.34;10444154;28;20072;-74
2023/08/16 06:52:22;;;;;;;3.50;2.67;;;;;;;21.09;61.08;101479.16;10444962;28;20060;-75
2023/08/16 06:57:25;;;;;;;8.13;3.17;;;;;;;21.04;60.88;101468.19;10431253;28;20050;-75
2023/08/16 07:02:27;;;;;;;6.38;2.45;;;;;;;20.93;61.75;101452.94;10440440;28;20045;-75
2023/08/16 07:07:32;;;;;;;4.05;2.67;;;;;;;20.83;62.65;101461.66;10412078;28;20049;-75
2023/08/16 07:12:35;;;;;;;3.50;2.00;;;;;;;20.82;62.34;101460.81;10441928;28;20049;-75
2023/08/16 07:17:38;;;;;;;4.38;2.25;;;;;;;20.94;61.87;101441.44;10442728;28;20041;-75
2023/08/16 07:22:40;;;;;;;6.68;2.78;;;;;;;20.87;62.60;101451.47;10431786;28;20255;-75
2023/08/16 07:27:43;;;;;;;7.93;2.75;;;;;;;21.09;62.50;101448.47;10440592;28;20034;-75
2023/08/16 07:32:45;;;;;;;4.03;2.22;;;;;;;21.07;61.70;101442.41;10441214;28;20416;-76
2023/08/16 07:37:48;;;;;;;3.78;2.53;;;;;;;21.20;61.56;101454.53;10445934;28;20037;-76
2023/08/16 07:42:50;;;;;;;5.43;2.63;;;;;;;21.62;61.02;101444.34;10444445;28;20057;-74
2023/08/16 07:47:52;;;;;;;3.17;2.22;;;;;;;21.58;61.02;101451.78;10447209;28;20049;-75
2023/08/16 07:52:55;;;;;;;3.88;2.33;;;;;;;22.48;58.68;101437.38;10445349;28;20046;-75
2023/08/16 07:57:57;;;;;;;2.47;1.70;;;;;;;23.76;54.35;101425.91;10438730;28;20056;-74
2023/08/16 08:02:59;;;;;;;4.25;2.35;;;;;;;25.17;52.32;101424.88;10444343;28;20088;-73
2023/08/16 08:08:02;;;;;;;1.98;1.80;;;;;;;24.08;53.63;101405.66;10444728;28;20050;-74
2023/08/16 08:13:04;;;;;;;6.45;2.05;;;;;;;23.85;53.22;101388.53;10443051;28;20060;-73
2023/08/16 08:18:06;;;;;;;3.03;1.80;;;;;;;24.91;51.83;101402.88;10427334;28;20421;-75
2023/08/16 08:23:11;;;;;;;3.42;2.05;;;;;;;25.16;50.48;101391.50;10443662;28;20060;-75
2023/08/16 08:28:13;;;;;;;6.15;2.30;;;;;;;24.80;51.21;101375.69;10444274;28;20065;-73
2023/08/16 08:33:16;;;;;;;3.00;2.20;;;;;;;24.46;52.08;101369.53;10434984;28;20045;-73
2023/08/16 08:38:18;;;;;;;3.63;1.90;;;;;;;24.62;52.74;101378.81;10435524;28;20057;-73
2023/08/16 08:43:22;;;;;;;5.20;2.40;;;;;;;23.59;55.24;101358.91;10441982;28;20049;-74
2023/08/16 08:48:26;;;;;;;2.40;2.03;;;;;;;24.57;52.89;101364.25;10410006;28;20400;-74
2023/08/16 08:53:28;;;;;;;4.78;2.30;;;;;;;24.77;52.72;101371.59;10440148;28;20408;-74
2023/08/16 08:58:31;;;;;;;5.15;2.22;;;;;;;24.94;52.12;101388.13;10440889;28;20053;-74
2023/08/16 09:03:33;;;;;;;4.53;2.58;;;;;;;24.77;53.18;101407.28;10442097;28;20056;-74
2023/08/16 09:08:40;;;;;;;5.05;2.28;;;;;;;24.20;55.15;101414.84;10471159;28;20072;-74
2023/08/16 09:13:43;;;;;;;2.50;2.10;;;;;;;24.94;53.19;101385.31;10429920;28;20393;-74
2023/08/16 09:18:47;;;;;;;5.13;2.40;;;;;;;24.91;52.87;101402.88;10416903;28;20049;-77
2023/08/16 09:23:57;;;;;;;3.33;2.03;;;;;;;25.99;51.75;101410.00;10408920;28;20042;-75
2023/08/16 09:29:00;;;;;;;4.07;2.25;;;;;;;26.19;50.23;101405.22;10442626;28;20037;-77
2023/08/16 09:34:03;;;;;;;4.13;2.30;;;;;;;26.01;50.84;101398.38;10433528;28;20057;-77
2023/08/16 09:39:10;;;;;;;6.93;2.20;;;;;;;25.70;52.16;101396.50;10439942;28;20049;-78
2023/08/16 09:44:13;;;;;;;4.35;2.08;;;;;;;25.96;50.98;101382.63;10441414;28;20064;-78
2023/08/16 09:49:15;;;;;;;6.05;2.60;;;;;;;25.36;53.55;101372.75;10441996;28;20653;-78
2023/08/16 09:54:17;;;;;;;6.53;2.60;;;;;;;25.02;54.29;101377.94;10424579;28;20033;-78
2023/08/16 09:59:20;;;;;;;2.83;2.10;;;;;;;25.14;53.98;101371.38;10435114;28;20195;-78
2023/08/16 10:04:22;;;;;;;2.88;2.25;;;;;;;25.66;52.50;101364.63;10436599;28;20038;-77
2023/08/16 10:09:25;;;;;;;4.60;2.58;;;;;;;25.79;52.65;101352.94;10433075;28;20057;-76
2023/08/16 10:14:27;;;;;;;3.60;2.28;;;;;;;25.83;51.65;101347.38;10464752;28;20048;-76
2023/08/16 10:19:32;;;;;;;7.10;2.60;;;;;;;25.63;52.30;101346.50;10487120;28;20634;-77
2023/08/16 10:24:35;;;;;;;3.72;2.58;;;;;;;25.70;52.47;101343.91;10448308;28;20033;-75
2023/08/16 10:29:38;;;;;;;4.43;2.47;;;;;;;25.85;53.18;101350.63;10465755;28;20045;-79
2023/08/16 10:34:41;;;;;;;6.20;2.90;;;;;;;25.86;53.73;101343.84;10449267;28;20048;-78
2023/08/16 10:39:49;;;;;;;5.93;2.50;;;;;;;25.97;53.20;101344.88;10449264;28;20038;-78
2023/08/16 10:44:51;;;;;;;6.40;3.17;;;;;;;26.25;53.10;101341.03;10436119;28;20045;-74
2023/08/16 10:49:54;;;;;;;8.02;2.88;;;;;;;26.36;53.53;101334.47;10436151;28;20041;-75
2023/08/16 10:54:58;;;;;;;3.28;2.72;;;;;;;26.35;54.17;101338.47;10448231;28;20041;-75
2023/08/16 11:00:06;;;;;;;6.20;2.67;;;;;;;26.35;53.77;101334.84;10447335;28;20077;-76
2023/08/16 11:05:20;;;;;;;4.80;3.00;;;;;;;26.63;53.54;101328.94;10447235;28;20514;-76
2023/08/16 11:10:36;;;;;;;5.45;3.38;;;;;;;26.49;54.42;101323.84;10445951;28;20049;-77
2023/08/16 11:15:41;;;;;;;6.20;3.22;;;;;;;26.48;55.22;101319.41;10448337;28;20068;-77
2023/08/16 11:20:43;;;;;;;4.80;3.38;;;;;;;26.68;54.49;101323.81;10414713;28;20079;-76
2023/08/16 11:25:45;;;;;;;4.53;3.17;;;;;;;26.84;53.98;101328.53;10444306;28;20049;-75
2023/08/16 11:30:55;;;;;;;5.28;3.85;;;;;;;26.94;55.24;101325.91;10445586;28;20050;-76
2023/08/16 11:36:02;;;;;;;6.20;3.60;;;;;;;27.16;54.28;101327.09;10447183;28;20045;-75
2023/08/16 11:41:05;;;;;;;4.70;3.55;;;;;;;27.22;54.15;101321.94;10445692;28;20049;-76
2023/08/16 11:46:08;;;;;;;4.78;4.05;;;;;;;27.10;54.66;101328.63;10445046;28;20057;-74
2023/08/16 11:51:11;;;;;;;5.45;3.65;;;;;;;27.17;54.30;101323.09;10443702;28;20052;-76
2023/08/16 11:56:13;;;;;;;4.70;3.67;;;;;;;27.19;54.86;101315.06;10447384;28;20140;-76
2023/08/16 12:01:16;;;;;;;6.30;4.25;;;;;;;27.11;55.38;101316.16;10444999;28;20064;-76
2023/08/16 12:06:21;;;;;;;4.20;3.70;;;;;;;27.06;55.11;101316.44;10410575;28;20042;-76
2023/08/16 12:11:33;;;;;;;4.55;3.63;;;;;;;27.07;55.43;101309.63;10403674;28;20058;-76
2023/08/16 12:16:36;;;;;;;6.65;3.60;;;;;;;27.09;55.07;101306.47;10404732;28;20076;-76
2023/08/16 12:21:38;;;;;;;5.82;3.88;;;;;;;27.13;54.92;101310.94;10408403;28;20193;-76
2023/08/16 12:26:40;;;;;;;5.18;3.65;;;;;;;27.23;54.78;101309.47;10416447;28;20046;-75
2023/08/16 12:31:42;;;;;;;5.43;3.88;;;;;;;27.18;55.15;101307.00;10441236;28;20039;-76
2023/08/16 12:36:45;;;;;;;5.03;4.20;;;;;;;27.22;55.09;101316.31;10421667;28;20038;-76
2023/08/16 12:41:47;;;;;;;5.07;4.22;;;;;;;27.24;55.00;101320.38;10417095;28;20492;-75
2023/08/16 12:46:49;;;;;;;5.55;3.80;;;;;;;27.29;55.36;101320.06;10446318;28;20060;-77
2023/08/16 12:51:51;;;;;;;7.10;3.47;;;;;;;27.21;56.08;101320.31;10443572;28;20080;-76
2023/08/16 12:56:53;;;;;;;4.38;3.97;;;;;;;27.25;55.59;101318.41;10433598;28;20056;-76
2023/08/16 13:01:56;;;;;;;4.40;3.92;;;;;;;27.42;55.15;101317.00;10438341;28;20588;-76
2023/08/16 13:07:02;;;;;;;5.10;3.50;;;;;;;27.49;54.75;101317.94;10440777;28;20037;-76
2023/08/16 13:12:05;;;;;;;6.70;4.20;;;;;;;27.44;55.48;101311.84;10440709;28;20033;-74
2023/08/16 13:17:08;;;;;;;6.18;3.95;;;;;;;27.47;54.97;101316.72;10442715;28;20472;-75
2023/08/16 13:22:12;;;;;;;6.70;4.13;;;;;;;27.50;55.36;101313.13;10439009;28;20051;-75
2023/08/16 13:27:14;;;;;;;4.65;4.18;;;;;;;27.47;55.01;101317.53;10435890;28;20056;-75
2023/08/16 13:32:16;;;;;;;7.63;3.67;;;;;;;27.63;55.59;101308.91;10437120;28;20057;-75
2023/08/16 13:37:19;;;;;;;6.35;4.10;;;;;;;27.68;54.85;101311.41;10436628;28;20033;-75
2023/08/16 13:42:21;;;;;;;5.22;3.92;;;;;;;27.72;54.91;101315.06;10423808;28;20045;-75
2023/08/16 13:47:23;;;;;;;5.05;4.20;;;;;;;27.65;55.17;101317.81;10452382;28;20487;-75
2023/08/16 13:52:25;;;;;;;6.22;4.53;;;;;;;27.58;55.97;101317.66;10444767;28;20044;-75
2023/08/16 13:57:28;;;;;;;5.75;4.53;;;;;;;27.43;57.47;101322.28;10450179;28;20515;-76
2023/08/16 14:02:30;;;;;;;6.82;5.22;;;;;;;27.17;57.45;101330.72;10482513;28;20512;-76
2023/08/16 14:07:32;;;;;;;6.88;5.40;;;;;;;26.99;58.69;101334.03;10427378;28;20033;-75
2023/08/16 14:12:34;;;;;;;6.60;5.15;;;;;;;26.84;58.67;101334.97;10455563;28;20045;-76
2023/08/16 14:17:36;;;;;;;7.80;5.00;;;;;;;26.51;59.18;101338.38;10448893;28;20045;-75
2023/08/16 14:22:39;;;;;;;14.43;5.00;;;;;;;26.33;60.34;101337.19;10441005;28;20049;-76
2023/08/16 14:27:41;;;;;;;6.15;5.10;;;;;;;26.17;60.34;101342.88;10444654;28;20408;-76
2023/08/16 14:32:43;;;;;;;7.97;5.63;;;;;;;26.21;60.48;101355.06;10444799;28;20033;-76
2023/08/16 14:37:45;;;;;;;7.03;5.32;;;;;;;26.16;61.36;101344.06;10448824;28;20649;-76
2023/08/16 14:42:47;;;;;;;9.68;5.35;;;;;;;26.11;61.84;101350.81;10446203;28;20064;-76
2023/08/16 14:47:50;;;;;;;8.02;5.57;;;;;;;26.08;61.32;101345.13;10438063;28;20037;-77
2023/08/16 14:52:52;;;;;;;6.47;5.30;;;;;;;26.11;62.19;101353.63;10438802;28;20408;-76
2023/08/16 14:58:05;;;;;;;6.43;5.07;;;;;;;25.96;61.61;101357.31;10425925;28;20053;-77
2023/08/16 15:03:07;;;;;;;8.43;4.80;;;;;;;25.93;61.25;101358.06;10434963;28;20045;-78
2023/08/16 15:08:12;;;;;;;8.20;5.22;;;;;;;26.07;61.22;101358.38;10433986;28;20076;-75
2023/08/16 15:13:15;;;;;;;6.00;4.45;;;;;;;25.97;60.84;101358.94;10442461;28;20049;-75
2023/08/16 15:18:17;;;;;;;4.93;4.00;;;;;;;26.04;59.96;101352.69;10441907;28;20041;-75
2023/08/16 15:23:22;;;;;;;8.30;4.45;;;;;;;26.07;59.39;101361.19;10440986;28;20588;-75
2023/08/16 15:28:25;;;;;;;9.38;4.53;;;;;;;26.05;59.43;101363.56;10440521;28;20044;-74
2023/08/16 15:33:29;;;;;;;5.57;4.22;;;;;;;25.95;58.93;101361.31;10438291;28;20042;-75
2023/08/16 15:38:43;;;;;;;8.18;4.10;;;;;;;25.92;58.49;101361.25;10444335;28;20041;-75
2023/08/16 15:43:45;;;;;;;6.22;4.45;;;;;;;25.94;58.30;101359.69;10434425;28;20416;-76
2023/08/16 15:48:48;;;;;;;6.55;3.63;;;;;;;26.00;58.35;101357.38;10429688;28;20052;-75
2023/08/16 15:53:50;;;;;;;5.00;3.85;;;;;;;25.96;58.85;101357.31;10412450;28;20140;-75
2023/08/16 15:58:53;;;;;;;5.65;3.90;;;;;;;25.90;58.99;101355.97;10446363;28;20045;-76
2023/08/16 16:03:55;;;;;;;4.95;3.78;;;;;;;25.84;58.67;101354.63;10410277;28;20048;-76
2023/08/16 16:08:57;;;;;;;9.15;3.95;;;;;;;25.78;59.03;101356.91;10441445;28;20041;-76
2023/08/16 16:14:05;;;;;;;5.38;4.03;;;;;;;25.66;59.23;101348.56;10443246;28;20472;-76
2023/08/16 16:19:07;;;;;;;6.70;4.22;;;;;;;25.57;60.64;101359.22;10420204;28;20046;-76
2023/08/16 16:24:10;;;;;;;8.10;4.63;;;;;;;25.53;59.49;101356.31;10424395;28;20037;-76
2023/08/16 16:29:12;;;;;;;8.32;5.00;;;;;;;25.49;60.18;101361.03;10444589;28;20140;-76
2023/08/16 16:34:15;;;;;;;6.85;5.20;;;;;;;25.46;59.83;101358.13;10444165;28;20075;-76
2023/08/16 16:39:17;;;;;;;9.60;5.88;;;;;;;25.40;60.58;101348.38;10444988;28;20048;-76
2023/08/16 16:44:19;;;;;;;7.85;5.22;;;;;;;25.36;60.98;101351.09;10437172;28;20079;-76
2023/08/16 16:49:21;;;;;;;8.43;4.72;;;;;;;25.34;61.32;101353.47;10447890;28;20061;-76
2023/08/16 16:54:23;;;;;;;8.25;5.35;;;;;;;25.30;60.23;101348.91;10435145;28;20041;-74
2023/08/16 16:59:26;;;;;;;6.72;4.72;;;;;;;25.25;60.81;101344.41;10428809;28;20049;-74
2023/08/16 17:04:28;;;;;;;8.77;4.85;;;;;;;25.20;60.79;101353.91;10425749;28;20531;-74
2023/08/16 17:09:31;;;;;;;5.90;4.18;;;;;;;25.12;61.44;101345.66;10435075;28;20033;-77
2023/08/16 17:14:33;;;;;;;4.82;3.95;;;;;;;25.09;60.90;101343.59;10445317;28;20033;-78
2023/08/16 17:19:35;;;;;;;5.53;4.25;;;;;;;25.00;60.65;101354.19;10452798;28;20050;-77
2023/08/16 17:24:37;;;;;;;9.88;4.25;;;;;;;24.90;61.53;101349.91;10446450;28;20423;-76
2023/08/16 17:29:40;;;;;;;8.50;4.90;;;;;;;24.87;61.04;101351.44;10446700;28;20037;-76
2023/08/16 17:34:42;;;;;;;13.32;6.13;;;;;;;24.80;61.68;101351.22;10448289;28;20049;-76
2023/08/16 17:39:44;;;;;;;8.43;5.03;;;;;;;24.68;61.98;101354.13;10448124;28;20041;-76
2023/08/16 17:44:46;;;;;;;8.23;5.07;;;;;;;24.57;62.71;101353.00;10446522;28;20431;-76
2023/08/16 17:49:49;;;;;;;10.60;5.40;;;;;;;24.45;62.91;101350.25;10448695;28;20052;-77
2023/08/16 17:54:51;;;;;;;7.15;4.72;;;;;;;24.33;63.28;101346.34;10445311;28;20060;-77
2023/08/16 17:59:59;;;;;;;7.25;4.60;;;;;;;24.23;63.67;101354.44;10419822;28;20053;-77
2023/08/16 18:05:01;;;;;;;5.93;4.30;;;;;;;24.11;64.89;101348.84;10443222;28;20041;-77
2023/08/16 18:10:03;;;;;;;4.93;4.03;;;;;;;24.04;64.36;101357.88;10448547;28;20041;-77
2023/08/16 18:15:06;;;;;;;5.03;3.72;;;;;;;24.00;64.56;101354.16;10447746;28;20049;-77
2023/08/16 18:20:10;;;;;;;5.88;3.72;;;;;;;23.95;64.96;101344.03;10404714;28;20041;-77
2023/08/16 18:25:13;;;;;;;8.43;5.63;;;;;;;23.97;64.58;101340.84;10438793;28;20034;-77
2023/08/16 18:30:15;;;;;;;4.80;4.30;;;;;;;23.98;64.32;101350.91;10420501;28;20534;-76
2023/08/16 18:35:18;;;;;;;8.32;4.28;;;;;;;23.95;65.32;101351.59;10434654;28;20041;-75
2023/08/16 18:40:21;;;;;;;5.32;4.10;;;;;;;23.88;64.56;101345.78;10440652;28;20049;-76
2023/08/16 18:45:23;;;;;;;6.25;4.13;;;;;;;23.80;65.41;101346.75;10442686;28;20049;-76
2023/08/16 18:50:25;;;;;;;6.45;3.85;;;;;;;23.73;66.17;101339.72;10442619;28;20080;-78
2023/08/16 18:55:27;;;;;;;9.38;6.05;;;;;;;23.67;66.26;101345.94;10442244;28;20033;-76
2023/08/16 19:00:30;;;;;;;13.18;8.40;;;;;;;23.56;67.58;101345.56;10436905;28;20063;-72
2023/08/16 19:05:32;;;;;;;19.73;9.60;;;;;;;23.48;67.25;101345.72;10440827;28;20527;-73
2023/08/16 19:10:34;;;;;;;20.30;10.55;;;;;;;23.34;69.90;101349.69;10440744;28;20042;-72
2023/08/16 19:15:36;;;;;;;18.48;11.75;;;;;;;23.24;70.97;101344.53;10477945;28;20038;-73
2023/08/16 19:20:38;;;;;;;23.33;14.77;;;;;;;23.09;71.05;101357.25;10422948;28;20427;-72
2023/08/16 19:25:40;;;;;;;24.70;15.13;;;;;;;22.98;71.77;101344.88;10436424;28;20052;-73
2023/08/16 19:30:43;;;;;;;21.65;14.43;;;;;;;22.88;71.95;101348.13;10439406;28;20415;-78
2023/08/16 19:35:48;;;;;;;18.48;11.40;;;;;;;22.79;73.82;101342.59;10435630;28;20076;-77
2023/08/16 19:40:54;;;;;;;14.50;9.35;;;;;;;22.78;74.93;101342.94;10437955;28;20060;-78
2023/08/16 19:45:56;;;;;;;13.18;7.93;;;;;;;22.75;74.80;101335.25;10444288;28;20136;-78
2023/08/16 19:50:58;;;;;;;11.48;7.75;;;;;;;22.79;74.50;101341.78;10473886;28;20064;-77
2023/08/16 19:56:00;;;;;;;13.52;7.28;;;;;;;22.79;75.22;101345.41;10459278;28;20045;-78
2023/08/16 20:01:03;;;;;;;12.32;6.47;;;;;;;22.78;74.52;101335.38;10445746;28;20053;-79
2023/08/16 20:06:05;;;;;;;16.08;7.78;;;;;;;22.81;75.71;101331.88;10444685;28;20523;-77
2023/08/16 20:11:09;;;;;;;15.65;8.70;;;;;;;22.80;75.38;101321.84;10443230;28;20037;-78
2023/08/16 20:16:11;;;;;;;12.40;7.35;;;;;;;22.78;75.25;101318.59;10433419;28;20071;-80
2023/08/16 20:21:13;;;;;;;12.73;6.93;;;;;;;22.78;75.78;101323.38;10425635;28;20052;-76
2023/08/16 20:26:15;;;;;;;10.82;7.07;;;;;;;22.78;76.77;101314.97;10423028;28;20049;-75
2023/08/16 20:31:19;;;;;;;8.00;6.38;;;;;;;22.74;76.49;101316.84;10442618;28;20056;-74
2023/08/16 20:36:21;;;;;;;10.00;6.22;;;;;;;22.78;75.92;101313.00;10441677;28;20416;-74
2023/08/16 20:41:24;;;;;;;14.25;7.30;;;;;;;22.83;75.71;101311.97;10437550;28;20049;-75
2023/08/16 20:46:37;;;;;;;15.18;7.68;;;;;;;22.83;75.25;101314.75;10446607;28;20037;-75
2023/08/16 20:51:41;;;;;;;16.52;8.18;;;;;;;22.79;75.37;101309.03;10421239;28;20060;-76
2023/08/16 20:56:43;;;;;;;12.82;8.48;;;;;;;22.73;75.63;101313.19;10435719;28;20048;-76
2023/08/16 21:01:47;;;;;;;16.10;8.20;;;;;;;22.65;75.89;101319.72;10440105;28;20050;-76
2023/08/16 21:06:49;;;;;;;12.45;7.20;;;;;;;22.61;75.58;101313.19;10436341;28;20045;-76
2023/08/16 21:11:51;;;;;;;9.35;6.72;;;;;;;22.60;76.50;101313.53;10426987;28;20046;-75
2023/08/16 21:16:54;;;;;;;14.10;6.78;;;;;;;22.56;76.06;101322.63;10436959;28;20037;-75
2023/08/16 21:21:56;;;;;;;12.65;7.18;;;;;;;22.53;77.11;101314.91;10439191;28;20056;-75
2023/08/16 21:26:59;;;;;;;9.55;6.70;;;;;;;22.52;77.03;101309.66;10439416;28;20041;-75
2023/08/16 21:32:01;;;;;;;12.35;6.45;;;;;;;22.51;76.49;101308.03;10441726;28;20042;-75
2023/08/16 21:37:04;;;;;;;10.63;6.43;;;;;;;22.45;77.22;101298.22;10434789;28;20038;-75
2023/08/16 21:42:06;;;;;;;8.90;6.63;;;;;;;22.44;76.98;101283.44;10456234;28;20056;-75
2023/08/16 21:47:08;;;;;;;9.38;6.25;;;;;;;22.52;76.43;101284.47;10445641;28;20043;-75
2023/08/16 21:52:10;;;;;;;9.35;6.68;;;;;;;22.43;76.74;101273.41;10428408;28;20033;-76
2023/08/16 21:57:12;;;;;;;14.25;8.07;;;;;;;22.29;77.64;101289.69;10441025;28;20056;-75
2023/08/16 22:02:15;;;;;;;15.55;8.10;;;;;;;22.24;78.06;101292.69;10441042;28;20518;-75
2023/08/16 22:07:17;;;;;;;12.45;7.85;;;;;;;22.19;77.00;101295.69;10451263;28;20049;-75
2023/08/16 22:12:19;;;;;;;15.10;7.38;;;;;;;22.22;77.66;101289.44;10476742;28;20053;-75
2023/08/16 22:17:22;;;;;;;14.30;8.10;;;;;;;22.20;77.33;101297.31;10442352;28;20046;-75
2023/08/16 22:22:24;;;;;;;12.60;8.13;;;;;;;22.18;77.53;101289.28;10448298;28;20044;-75
2023/08/16 22:27:26;;;;;;;17.83;8.32;;;;;;;22.17;78.22;101275.66;10443016;28;20423;-75
2023/08/16 22:32:28;;;;;;;18.38;8.15;;;;;;;22.10;78.61;101283.78;10447507;28;20045;-75
2023/08/16 22:37:31;;;;;;;12.90;7.78;;;;;;;22.12;77.96;101281.47;10446731;28;20033;-75
2023/08/16 22:42:33;;;;;;;14.32;7.68;;;;;;;22.15;78.25;101275.19;10452860;28;20046;-75
2023/08/16 22:47:35;;;;;;;13.98;8.35;;;;;;;22.12;78.42;101275.88;10425671;28;20037;-75
2023/08/16 22:52:37;;;;;;;13.93;8.75;;;;;;;22.09;78.46;101279.34;10449470;28;20133;-75
2023/08/16 22:57:40;;;;;;;14.85;7.93;;;;;;;22.05;80.63;101351.91;10444477;28;20124;-75
2023/08/16 23:02:42;;;;;;;15.65;8.80;;;;;;;21.54;84.78;101339.09;10417098;28;20057;-75
2023/08/16 23:07:44;;;;;;;12.80;7.78;;;;;;;20.66;93.37;101276.47;10438144;28;20049;-75